createdAt,value
2023-01-28T00:01:17.033Z,71.00
2023-01-28T00:03:44.821Z,71.00
2023-01-28T00:06:14.813Z,71.00
2023-01-28T00:08:42.349Z,71.10
2023-01-28T00:11:12.239Z,71.20
2023-01-28T00:13:39.883Z,71.10
2023-01-28T00:16:09.737Z,71.10
2023-01-28T00:18:37.742Z,71.10
2023-01-28T00:21:08.245Z,71.10
2023-01-28T00:23:37.989Z,71.10
2023-01-28T00:26:11.907Z,71.10
2023-01-28T00:28:43.544Z,71.10
2023-01-28T00:31:31.327Z,71.10
2023-01-28T00:34:00.704Z,71.20
2023-01-28T00:36:28.076Z,71.20
2023-01-28T00:38:59.977Z,71.20
2023-01-28T00:41:29.067Z,71.20
2023-01-28T00:43:59.260Z,71.30
2023-01-28T00:46:27.368Z,71.30
2023-01-28T00:48:54.841Z,71.20
2023-01-28T00:51:22.423Z,71.30
2023-01-28T00:53:49.990Z,71.30
2023-01-28T00:56:19.406Z,71.30
2023-01-28T00:58:47.309Z,71.30
2023-01-28T01:01:18.989Z,71.40
2023-01-28T01:03:47.104Z,71.40
2023-01-28T01:06:16.162Z,71.40
2023-01-28T01:08:50.545Z,71.50
2023-01-28T01:11:19.232Z,71.40
2023-01-28T01:13:52.042Z,71.40
2023-01-28T01:16:19.585Z,71.50
2023-01-28T01:18:52.139Z,71.50
2023-01-28T01:21:21.981Z,71.40
2023-01-28T01:23:49.597Z,71.30
2023-01-28T01:26:17.465Z,71.30
2023-01-28T01:28:45.286Z,71.30
2023-01-28T01:31:17.549Z,71.30
2023-01-28T01:33:48.183Z,71.30
2023-01-28T01:36:17.141Z,71.40
2023-01-28T01:38:45.110Z,71.40
2023-01-28T01:41:32.964Z,71.40
2023-01-28T01:44:02.468Z,71.50
2023-01-28T01:46:45.547Z,71.50
2023-01-28T01:49:25.961Z,71.60
2023-01-28T01:52:07.475Z,71.60
2023-01-28T01:54:36.824Z,71.60
2023-01-28T01:57:07.217Z,71.70
2023-01-28T01:59:36.060Z,71.80
2023-01-28T02:02:07.702Z,71.80
2023-01-28T02:04:41.567Z,71.80
2023-01-28T02:07:11.044Z,71.90
2023-01-28T02:09:41.569Z,71.80
2023-01-28T02:12:14.308Z,71.90
2023-01-28T02:14:48.852Z,71.90
2023-01-28T02:17:16.932Z,72.00
2023-01-28T02:19:54.279Z,72.00
2023-01-28T02:22:27.739Z,72.70
2023-01-28T02:25:37.133Z,72.00
2023-01-28T02:28:26.525Z,72.10
2023-01-28T02:31:19.411Z,72.00
2023-01-28T02:34:08.541Z,71.90
2023-01-28T02:36:47.597Z,72.00
2023-01-28T02:39:38.932Z,72.10
2023-01-28T02:42:18.507Z,72.00
2023-01-28T02:44:45.954Z,72.00
2023-01-28T02:47:34.429Z,72.10
2023-01-28T02:50:09.636Z,72.10
2023-01-28T02:53:20.830Z,72.10
2023-01-28T02:55:59.135Z,72.10
2023-01-28T02:58:51.810Z,72.00
2023-01-28T03:01:24.618Z,72.10
2023-01-28T03:04:16.705Z,72.10
2023-01-28T03:06:53.578Z,72.00
2023-01-28T03:09:22.762Z,72.00
2023-01-28T03:12:22.213Z,72.00
2023-01-28T03:15:15.666Z,72.10
2023-01-28T03:18:08.904Z,72.00
2023-01-28T03:21:16.389Z,72.00
2023-01-28T03:24:20.285Z,72.10
2023-01-28T03:27:27.969Z,72.00
2023-01-28T03:30:26.541Z,72.10
2023-01-28T03:33:14.320Z,72.00
2023-01-28T03:36:02.050Z,72.00
2023-01-28T03:38:33.939Z,71.80
2023-01-28T03:41:03.696Z,71.90
2023-01-28T03:43:32.381Z,72.00
2023-01-28T03:45:59.907Z,72.00
2023-01-28T03:48:28.697Z,72.00
2023-01-28T03:50:56.826Z,72.10
2023-01-28T03:53:26.364Z,72.00
2023-01-28T03:55:54.809Z,72.00
2023-01-28T03:58:26.892Z,72.10
2023-01-28T04:00:54.373Z,72.10
2023-01-28T04:03:22.085Z,72.00
2023-01-28T04:06:05.052Z,72.10
2023-01-28T04:08:56.293Z,72.00
2023-01-28T04:11:31.880Z,72.00
2023-01-28T04:14:01.966Z,71.90
2023-01-28T04:16:42.538Z,71.90
2023-01-28T04:19:10.577Z,71.90
2023-01-28T04:21:37.998Z,71.90
2023-01-28T04:24:06.213Z,72.00
2023-01-28T04:26:33.939Z,72.00
2023-01-28T04:29:01.284Z,72.10
2023-01-28T04:31:29.316Z,72.10
2023-01-28T04:34:14.890Z,72.00
2023-01-28T04:37:05.144Z,72.00
2023-01-28T04:39:54.999Z,72.00
2023-01-28T04:42:40.719Z,72.00
2023-01-28T04:45:25.948Z,71.90
2023-01-28T04:48:17.306Z,71.90
2023-01-28T04:51:07.824Z,71.90
2023-01-28T04:53:39.384Z,72.00
2023-01-28T04:56:08.465Z,72.00
2023-01-28T04:58:36.795Z,71.90
2023-01-28T05:01:12.480Z,71.90
2023-01-28T05:03:40.658Z,71.90
2023-01-28T05:06:08.993Z,71.90
2023-01-28T05:08:42.561Z,71.90
2023-01-28T05:11:10.066Z,71.90
2023-01-28T05:13:37.609Z,72.00
2023-01-28T05:16:07.164Z,72.00
2023-01-28T05:18:34.660Z,72.10
2023-01-28T05:21:15.118Z,72.10
2023-01-28T05:23:43.916Z,72.10
2023-01-28T05:26:11.838Z,72.10
2023-01-28T05:28:39.239Z,72.20
2023-01-28T05:31:10.039Z,72.20
2023-01-28T05:33:38.258Z,72.10
2023-01-28T05:36:08.772Z,71.90
2023-01-28T05:38:36.096Z,71.60
2023-01-28T05:41:03.822Z,71.40
2023-01-28T05:43:32.760Z,71.30
2023-01-28T05:46:13.963Z,71.30
2023-01-28T05:48:59.997Z,71.30
2023-01-28T05:51:48.248Z,71.30
2023-01-28T05:54:19.010Z,71.30
2023-01-28T05:56:47.426Z,71.30
2023-01-28T05:59:15.046Z,71.40
2023-01-28T06:01:44.435Z,71.40
2023-01-28T06:04:11.782Z,71.40
2023-01-28T06:06:40.060Z,71.40
2023-01-28T06:09:07.314Z,71.40
2023-01-28T06:11:35.722Z,71.30
2023-01-28T06:14:05.326Z,71.50
2023-01-28T06:16:44.107Z,71.60
2023-01-28T06:19:22.733Z,71.60
2023-01-28T06:21:50.590Z,71.70
2023-01-28T06:24:19.601Z,71.60
2023-01-28T06:26:47.017Z,71.60
2023-01-28T06:29:15.297Z,71.60
2023-01-28T06:31:42.969Z,71.40
2023-01-28T06:34:10.695Z,71.40
2023-01-28T06:36:38.144Z,71.50
2023-01-28T06:39:05.539Z,71.70
2023-01-28T06:41:32.982Z,71.60
2023-01-28T06:44:00.236Z,71.60
2023-01-28T06:46:27.835Z,71.60
2023-01-28T06:48:55.232Z,71.60
2023-01-28T06:51:22.653Z,71.50
2023-01-28T06:53:50.067Z,71.50
2023-01-28T06:56:17.462Z,71.40
2023-01-28T06:58:44.932Z,71.30
2023-01-28T07:01:13.056Z,71.20
2023-01-28T07:03:40.469Z,71.10
2023-01-28T07:06:07.944Z,71.10
2023-01-28T07:08:35.777Z,71.00
2023-01-28T07:11:04.383Z,70.80
2023-01-28T07:13:31.849Z,70.80
2023-01-28T07:15:59.336Z,70.70
2023-01-28T07:18:27.085Z,70.60
2023-01-28T07:20:54.865Z,70.40
2023-01-28T07:23:22.807Z,70.40
2023-01-28T07:25:50.532Z,70.40
2023-01-28T07:28:21.394Z,70.40
2023-01-28T07:30:53.411Z,70.30
2023-01-28T07:33:21.028Z,70.10
2023-01-28T07:35:49.031Z,69.90
2023-01-28T07:38:16.448Z,69.80
2023-01-28T07:40:45.169Z,69.80
2023-01-28T07:43:12.738Z,69.70
2023-01-28T07:45:41.945Z,69.80
2023-01-28T07:48:12.567Z,69.70
2023-01-28T07:50:40.434Z,69.70
2023-01-28T07:53:12.276Z,69.80
2023-01-28T07:55:40.002Z,69.60
2023-01-28T07:58:10.826Z,69.60
2023-01-28T08:00:39.124Z,69.30
2023-01-28T08:03:11.828Z,68.90
2023-01-28T08:05:43.317Z,69.10
2023-01-28T08:08:12.482Z,69.00
2023-01-28T08:10:40.727Z,68.80
2023-01-28T08:13:09.947Z,68.60
2023-01-28T08:15:38.720Z,68.60
2023-01-28T08:18:08.500Z,68.80
2023-01-28T08:20:36.757Z,68.90
2023-01-28T08:23:20.746Z,68.90
2023-01-28T08:25:49.130Z,68.90
2023-01-28T08:28:17.097Z,68.80
2023-01-28T08:30:45.141Z,68.90
2023-01-28T08:33:15.098Z,68.70
2023-01-28T08:35:42.606Z,68.50
2023-01-28T08:38:12.681Z,68.50
2023-01-28T08:40:40.843Z,68.40
2023-01-28T08:43:08.319Z,68.50
2023-01-28T08:45:35.689Z,68.50
2023-01-28T08:48:08.421Z,68.50
2023-01-28T08:50:38.594Z,68.70
2023-01-28T08:53:12.567Z,68.50
2023-01-28T08:55:40.128Z,68.30
2023-01-28T08:58:11.991Z,68.30
2023-01-28T09:00:40.079Z,68.10
2023-01-28T09:03:08.380Z,68.20
2023-01-28T09:05:37.755Z,68.10
2023-01-28T09:08:08.337Z,68.10
2023-01-28T09:10:37.509Z,68.00
2023-01-28T09:13:06.729Z,69.00
2023-01-28T09:15:35.309Z,68.00
2023-01-28T09:18:03.096Z,68.10
2023-01-28T09:20:32.188Z,68.30
2023-01-28T09:23:01.118Z,68.10
2023-01-28T09:25:29.285Z,67.80
2023-01-28T09:27:58.363Z,67.90
2023-01-28T09:30:26.533Z,68.10
2023-01-28T09:32:54.828Z,67.80
2023-01-28T09:35:22.517Z,67.70
2023-01-28T09:37:50.372Z,67.80
2023-01-28T09:40:25.895Z,67.70
2023-01-28T09:43:31.336Z,67.50
2023-01-28T09:46:02.721Z,67.40
2023-01-28T09:48:39.073Z,67.40
2023-01-28T09:51:28.599Z,67.40
2023-01-28T09:54:00.520Z,67.10
2023-01-28T09:56:34.285Z,67.30
2023-01-28T09:59:21.675Z,67.40
2023-01-28T10:02:04.086Z,67.20
2023-01-28T10:04:55.489Z,67.20
2023-01-28T10:07:39.084Z,67.30
2023-01-28T10:10:22.002Z,67.40
2023-01-28T10:13:16.262Z,67.40
2023-01-28T10:16:00.135Z,67.50
2023-01-28T10:18:42.102Z,67.70
2023-01-28T10:21:33.417Z,67.80
2023-01-28T10:24:08.771Z,67.70
2023-01-28T10:26:40.237Z,67.80
2023-01-28T10:29:18.604Z,67.90
2023-01-28T10:31:53.408Z,67.90
2023-01-28T10:34:22.367Z,67.70
2023-01-28T10:36:50.941Z,67.60
2023-01-28T10:39:22.968Z,67.40
2023-01-28T10:41:57.929Z,67.30
2023-01-28T10:44:37.675Z,67.10
2023-01-28T10:47:14.530Z,67.20
2023-01-28T10:49:52.440Z,67.40
2023-01-28T10:52:19.980Z,67.40
2023-01-28T10:54:47.283Z,67.40
2023-01-28T10:57:18.326Z,67.40
2023-01-28T10:59:46.011Z,67.50
2023-01-28T11:02:36.803Z,67.60
2023-01-28T11:05:21.265Z,67.50
2023-01-28T11:07:50.058Z,67.40
2023-01-28T11:10:36.541Z,67.10
2023-01-28T11:13:05.915Z,66.80
2023-01-28T11:15:33.722Z,66.80
2023-01-28T11:18:15.700Z,66.70
2023-01-28T11:20:50.123Z,66.30
2023-01-28T11:23:29.540Z,66.20
2023-01-28T11:26:14.191Z,66.00
2023-01-28T11:28:43.380Z,65.80
2023-01-28T11:31:14.881Z,65.70
2023-01-28T11:33:44.766Z,65.80
2023-01-28T11:36:16.744Z,65.70
2023-01-28T11:39:05.405Z,65.80
2023-01-28T11:41:35.462Z,66.00
2023-01-28T11:44:27.105Z,66.00
2023-01-28T11:47:13.522Z,65.50
2023-01-28T11:49:55.772Z,65.20
2023-01-28T11:53:02.647Z,65.30
2023-01-28T11:55:36.954Z,65.00
2023-01-28T11:58:24.573Z,65.00
2023-01-28T12:01:17.371Z,64.90
2023-01-28T12:03:56.934Z,65.00
2023-01-28T12:07:03.755Z,65.10
2023-01-28T12:09:51.729Z,64.80
2023-01-28T12:12:33.999Z,64.70
2023-01-28T12:15:49.969Z,64.80
2023-01-28T12:18:34.788Z,64.80
2023-01-28T12:21:26.403Z,65.20
2023-01-28T12:24:10.287Z,65.20
2023-01-28T12:27:04.036Z,65.60
2023-01-28T12:29:42.745Z,65.50
2023-01-28T12:32:22.753Z,65.00
2023-01-28T12:35:03.082Z,64.80
2023-01-28T12:37:38.145Z,64.90
2023-01-28T12:40:44.724Z,64.90
2023-01-28T12:43:23.877Z,65.10
2023-01-28T12:46:03.377Z,65.20
2023-01-28T12:48:42.558Z,65.30
2023-01-28T12:51:27.255Z,65.50
2023-01-28T12:54:11.500Z,65.50
2023-01-28T12:56:45.271Z,65.40
2023-01-28T12:59:36.488Z,65.60
2023-01-28T13:02:13.734Z,65.50
2023-01-28T13:04:59.552Z,65.90
2023-01-28T13:07:39.209Z,65.80
2023-01-28T13:10:32.730Z,65.50
2023-01-28T13:13:00.753Z,65.70
2023-01-28T13:15:29.417Z,65.80
2023-01-28T13:18:02.448Z,65.60
2023-01-28T13:20:38.908Z,65.30
2023-01-28T13:23:34.493Z,65.10
2023-01-28T13:26:21.351Z,65.10
2023-01-28T13:28:52.418Z,65.00
2023-01-28T13:31:23.415Z,65.00
2023-01-28T13:33:53.623Z,65.00
2023-01-28T13:36:47.618Z,65.10
2023-01-28T13:39:19.496Z,65.10
2023-01-28T13:41:55.474Z,65.10
2023-01-28T13:44:25.675Z,64.80
2023-01-28T13:47:00.689Z,64.50
2023-01-28T13:49:55.482Z,64.30
2023-01-28T13:52:28.209Z,64.20
2023-01-28T13:55:05.902Z,64.10
2023-01-28T13:58:10.241Z,64.00
2023-01-28T14:00:40.850Z,64.30
2023-01-28T14:03:40.407Z,64.50
2023-01-28T14:07:02.681Z,63.90
2023-01-28T14:09:47.050Z,63.80
2023-01-28T14:12:40.763Z,63.60
2023-01-28T14:15:40.264Z,63.60
2023-01-28T14:18:29.682Z,63.30
2023-01-28T14:21:01.244Z,63.20
2023-01-28T14:23:32.360Z,63.60
2023-01-28T14:26:17.800Z,63.40
2023-01-28T14:29:00.189Z,63.00
2023-01-28T14:31:34.012Z,63.20
2023-01-28T14:34:28.831Z,63.20
2023-01-28T14:37:03.055Z,62.80
2023-01-28T14:39:34.467Z,62.40
2023-01-28T14:42:03.121Z,62.20
2023-01-28T14:44:36.570Z,62.30
2023-01-28T14:47:04.004Z,62.30
2023-01-28T14:49:59.780Z,62.20
2023-01-28T14:52:57.344Z,62.20
2023-01-28T14:55:56.087Z,62.40
2023-01-28T14:58:32.711Z,62.40
2023-01-28T15:01:01.035Z,62.60
2023-01-28T15:03:30.037Z,62.70
2023-01-28T15:06:13.522Z,62.70
2023-01-28T15:08:41.210Z,62.90
2023-01-28T15:11:13.313Z,62.90
2023-01-28T15:13:45.116Z,62.90
2023-01-28T15:16:22.663Z,62.90
2023-01-28T15:18:50.956Z,62.50
2023-01-28T15:21:23.953Z,62.30
2023-01-28T15:24:03.175Z,62.30
2023-01-28T15:26:34.767Z,62.40
2023-01-28T15:29:02.191Z,62.40
2023-01-28T15:31:35.025Z,62.40
2023-01-28T15:34:17.868Z,62.40
2023-01-28T15:36:47.592Z,62.10
2023-01-28T15:39:21.467Z,62.10
2023-01-28T15:42:02.714Z,61.70
2023-01-28T15:44:38.788Z,61.90
2023-01-28T15:47:16.850Z,62.00
2023-01-28T15:49:48.529Z,61.90
2023-01-28T15:52:16.280Z,61.80
2023-01-28T15:54:48.690Z,61.80
2023-01-28T15:57:22.102Z,62.00
2023-01-28T15:59:51.227Z,62.10
2023-01-28T16:02:24.133Z,62.20
2023-01-28T16:05:00.325Z,62.00
2023-01-28T16:07:30.229Z,62.10
2023-01-28T16:10:00.374Z,62.20
2023-01-28T16:12:28.354Z,62.30
2023-01-28T16:14:58.731Z,62.50
2023-01-28T16:17:40.304Z,62.70
2023-01-28T16:20:26.429Z,62.70
2023-01-28T16:23:02.913Z,62.50
2023-01-28T16:25:39.155Z,62.70
2023-01-28T16:28:20.187Z,63.00
2023-01-28T16:30:47.568Z,63.00
2023-01-28T16:33:22.279Z,63.00
2023-01-28T16:36:06.247Z,63.00
2023-01-28T16:38:35.523Z,63.10
2023-01-28T16:41:03.393Z,62.90
2023-01-28T16:43:32.352Z,63.00
2023-01-28T16:45:59.669Z,63.00
2023-01-28T16:48:27.011Z,62.70
2023-01-28T16:50:54.289Z,62.70
2023-01-28T16:53:28.763Z,62.50
2023-01-28T16:55:56.439Z,62.60
2023-01-28T16:58:26.585Z,62.60
2023-01-28T17:00:53.981Z,62.60
2023-01-28T17:03:21.894Z,62.60
2023-01-28T17:05:49.332Z,62.50
2023-01-28T17:08:16.935Z,62.60
2023-01-28T17:10:44.688Z,61.70
2023-01-28T17:13:12.102Z,62.40
2023-01-28T17:15:39.819Z,62.20
2023-01-28T17:18:09.640Z,62.00
2023-01-28T17:20:40.285Z,62.00
2023-01-28T17:23:11.773Z,62.10
2023-01-28T17:25:39.271Z,62.10
2023-01-28T17:28:08.102Z,62.10
2023-01-28T17:30:40.414Z,62.10
2023-01-28T17:33:09.284Z,62.20
2023-01-28T17:35:37.180Z,62.50
2023-01-28T17:38:06.027Z,62.50
2023-01-28T17:40:33.537Z,62.50
2023-01-28T17:43:00.966Z,62.50
2023-01-28T17:45:31.314Z,62.40
2023-01-28T17:47:58.982Z,62.30
2023-01-28T17:50:26.770Z,62.30
2023-01-28T17:52:57.855Z,62.40
2023-01-28T17:55:26.238Z,62.60
2023-01-28T17:57:53.640Z,62.70
2023-01-28T18:00:22.337Z,62.50
2023-01-28T18:02:50.420Z,62.40
2023-01-28T18:05:18.236Z,62.50
2023-01-28T18:07:46.182Z,62.60
2023-01-28T18:10:14.507Z,62.60
2023-01-28T18:12:42.111Z,62.70
2023-01-28T18:15:11.315Z,62.70
2023-01-28T18:17:42.186Z,62.70
2023-01-28T18:20:10.935Z,62.60
2023-01-28T18:22:38.328Z,62.50
2023-01-28T18:25:06.084Z,62.50
2023-01-28T18:27:33.476Z,62.50
2023-01-28T18:30:00.993Z,62.70
2023-01-28T18:32:28.535Z,62.90
2023-01-28T18:34:55.806Z,63.10
2023-01-28T18:37:23.455Z,63.10
2023-01-28T18:39:50.700Z,63.10
2023-01-28T18:42:18.048Z,62.90
2023-01-28T18:44:45.488Z,62.70
2023-01-28T18:47:13.311Z,62.70
2023-01-28T18:49:42.326Z,62.70
2023-01-28T18:52:09.979Z,62.50
2023-01-28T18:54:37.181Z,62.60
2023-01-28T18:57:04.532Z,62.70
2023-01-28T18:59:31.908Z,62.60
2023-01-28T19:01:59.322Z,62.50
2023-01-28T19:04:26.601Z,62.50
2023-01-28T19:06:57.394Z,62.50
2023-01-28T19:09:24.634Z,62.50
2023-01-28T19:11:52.256Z,62.70
2023-01-28T19:14:19.614Z,62.80
2023-01-28T19:16:46.998Z,62.70
2023-01-28T19:19:14.305Z,62.70
2023-01-28T19:21:41.964Z,62.50
2023-01-28T19:24:13.792Z,62.50
2023-01-28T19:26:42.371Z,62.50
2023-01-28T19:29:11.543Z,62.70
2023-01-28T19:31:39.553Z,62.70
2023-01-28T19:34:07.205Z,62.80
2023-01-28T19:36:35.278Z,62.90
2023-01-28T19:39:07.795Z,63.00
2023-01-28T19:41:36.088Z,62.90
2023-01-28T19:44:04.982Z,62.70
2023-01-28T19:46:33.709Z,62.60
2023-01-28T19:49:01.183Z,62.70
2023-01-28T19:51:28.736Z,62.80
2023-01-28T19:53:56.253Z,62.90
2023-01-28T19:56:25.659Z,63.00
2023-01-28T19:58:54.789Z,63.10
2023-01-28T20:01:24.774Z,63.10
2023-01-28T20:03:55.239Z,63.30
2023-01-28T20:06:23.947Z,63.40
2023-01-28T20:08:53.475Z,63.50
2023-01-28T20:11:22.302Z,63.30
2023-01-28T20:13:51.673Z,63.00
2023-01-28T20:16:23.135Z,63.10
2023-01-28T20:18:52.720Z,63.20
2023-01-28T20:21:21.030Z,63.30
2023-01-28T20:23:50.543Z,63.10
2023-01-28T20:26:21.305Z,63.00
2023-01-28T20:28:50.277Z,63.10
2023-01-28T20:31:19.253Z,63.00
2023-01-28T20:33:46.969Z,63.00
2023-01-28T20:36:14.940Z,63.10
2023-01-28T20:38:47.311Z,62.60
2023-01-28T20:41:20.536Z,62.40
2023-01-28T20:43:49.163Z,62.40
2023-01-28T20:46:22.491Z,62.30
2023-01-28T20:48:50.606Z,62.00
2023-01-28T20:51:20.635Z,62.90
2023-01-28T20:53:48.809Z,62.30
2023-01-28T20:56:19.241Z,62.40
2023-01-28T20:58:49.179Z,62.60
2023-01-28T21:01:28.570Z,62.30
2023-01-28T21:03:56.189Z,62.30
2023-01-28T21:06:24.712Z,62.10
2023-01-28T21:08:56.916Z,62.10
2023-01-28T21:11:26.362Z,62.20
2023-01-28T21:13:54.325Z,62.30
2023-01-28T21:16:22.204Z,62.40
2023-01-28T21:18:50.325Z,62.40
2023-01-28T21:21:28.877Z,62.30
2023-01-28T21:24:00.263Z,62.30
2023-01-28T21:26:28.333Z,62.20
2023-01-28T21:28:56.123Z,62.00
2023-01-28T21:31:25.439Z,62.10
2023-01-28T21:33:58.035Z,62.00
2023-01-28T21:36:26.612Z,62.10
2023-01-28T21:38:56.228Z,63.10
2023-01-28T21:41:24.632Z,62.40
2023-01-28T21:43:53.561Z,62.50
2023-01-28T21:46:31.846Z,62.50
2023-01-28T21:49:01.075Z,62.50
2023-01-28T21:51:39.541Z,62.40
2023-01-28T21:54:11.701Z,62.30
2023-01-28T21:56:39.214Z,62.30
2023-01-28T21:59:25.440Z,62.20
2023-01-28T22:01:52.857Z,62.10
2023-01-28T22:04:20.353Z,62.20
2023-01-28T22:06:48.153Z,62.00
2023-01-28T22:09:15.720Z,62.00
2023-01-28T22:11:44.968Z,61.90
2023-01-28T22:14:13.263Z,61.90
2023-01-28T22:16:41.594Z,61.90
2023-01-28T22:19:10.248Z,61.90
2023-01-28T22:21:42.043Z,62.00
2023-01-28T22:24:28.013Z,62.10
2023-01-28T22:26:55.542Z,62.30
2023-01-28T22:29:24.160Z,62.60
2023-01-28T22:31:53.334Z,62.60
2023-01-28T22:34:21.950Z,62.50
2023-01-28T22:36:50.814Z,62.50
2023-01-28T22:39:18.466Z,62.50
2023-01-28T22:41:46.763Z,62.30
2023-01-28T22:44:14.605Z,62.30
2023-01-28T22:46:42.099Z,62.20
2023-01-28T22:49:11.873Z,62.20
2023-01-28T22:51:39.650Z,62.20
2023-01-28T22:54:07.181Z,62.20
2023-01-28T22:56:34.583Z,62.20
2023-01-28T22:59:03.682Z,62.50
2023-01-28T23:01:31.691Z,62.20
2023-01-28T23:03:59.171Z,62.30
2023-01-28T23:06:28.085Z,62.80
2023-01-28T23:08:56.236Z,61.90
2023-01-28T23:11:28.034Z,61.90
2023-01-28T23:14:17.622Z,62.00
2023-01-28T23:17:04.181Z,61.90
2023-01-28T23:19:50.200Z,61.90
2023-01-28T23:22:46.438Z,62.10
2023-01-28T23:25:14.091Z,62.30
2023-01-28T23:27:42.052Z,62.20
2023-01-28T23:30:11.070Z,62.20
2023-01-28T23:32:48.282Z,62.30
2023-01-28T23:35:15.901Z,62.30
2023-01-28T23:37:43.362Z,62.30
2023-01-28T23:40:11.632Z,62.40
2023-01-28T23:42:39.343Z,62.40
2023-01-28T23:45:07.584Z,62.40
2023-01-28T23:47:35.001Z,62.20
2023-01-28T23:50:02.385Z,62.10
2023-01-28T23:52:29.820Z,62.20
2023-01-28T23:54:57.223Z,62.30
2023-01-28T23:57:24.573Z,62.30
2023-01-28T23:59:52.113Z,62.30
